Time;durP1;ratioP1;P1;durP2;ratioP2;P2;SDS_P1;SDS_P2;PMS_P1;PMS_P2;Temp;Humidity;BMP_temperature;BMP_pressure;BME280_temperature;BME280_humidity;BME280_pressure;Samples;Min_cycle;Max_cycle;Signal;HPM_P1;HPM_P2
2022/08/30 00:01:29;;;;;;;5.03;4.63;;;;;;;20.60;71.59;98869.94;4995850;28;103081;-61
2022/08/30 00:03:57;;;;;;;4.75;4.13;;;;;;;20.72;70.64;98864.03;4995518;28;102827;-61
2022/08/30 00:06:28;;;;;;;5.70;5.20;;;;;;;20.73;71.03;98863.03;4991040;28;103258;-62
2022/08/30 00:08:57;;;;;;;6.13;5.53;;;;;;;20.58;71.87;98858.50;4989833;28;104798;-61
2022/08/30 00:11:27;;;;;;;6.50;5.20;;;;;;;20.61;71.67;98855.50;4990950;28;102856;-61
2022/08/30 00:13:56;;;;;;;4.18;3.80;;;;;;;20.58;71.40;98851.31;4994566;28;103065;-61
2022/08/30 00:16:25;;;;;;;4.53;4.13;;;;;;;20.70;70.77;98859.84;4989109;28;103374;-61
2022/08/30 00:18:53;;;;;;;5.22;4.80;;;;;;;20.69;70.98;98866.22;4990613;28;103243;-61
2022/08/30 00:21:25;;;;;;;6.22;5.63;;;;;;;20.53;71.95;98860.88;4988373;28;103121;-61
2022/08/30 00:23:55;;;;;;;5.80;5.20;;;;;;;20.51;72.07;98865.59;5004608;28;102952;-61
2022/08/30 00:26:23;;;;;;;7.05;5.63;;;;;;;20.13;74.58;98859.84;4990181;28;103364;-61
2022/08/30 00:28:51;;;;;;;7.10;4.30;;;;;;;20.40;72.62;98863.25;4990194;28;102984;-61
2022/08/30 00:31:19;;;;;;;7.00;6.30;;;;;;;19.91;74.70;98868.56;4989578;27;102848;-61
2022/08/30 00:33:47;;;;;;;5.50;5.00;;;;;;;20.23;73.47;98868.59;4994388;28;102740;-61
2022/08/30 00:36:14;;;;;;;6.20;5.30;;;;;;;20.41;72.05;98867.59;4992524;28;103422;-61
2022/08/30 00:38:42;;;;;;;4.20;3.90;;;;;;;20.51;70.81;98865.59;4994069;28;103440;-61
2022/08/30 00:41:12;;;;;;;4.53;4.07;;;;;;;20.60;70.46;98867.25;4995116;28;103090;-61
2022/08/30 00:43:40;;;;;;;5.35;4.85;;;;;;;20.53;70.87;98866.25;4994559;28;103957;-61
2022/08/30 00:46:09;;;;;;;5.35;4.85;;;;;;;20.56;71.17;98863.22;4995946;28;103224;-61
2022/08/30 00:48:42;;;;;;;5.13;4.63;;;;;;;20.37;72.02;98866.25;4994575;28;103236;-61
2022/08/30 00:51:14;;;;;;;4.80;4.30;;;;;;;20.49;71.28;98862.25;4994387;28;102716;-61
2022/08/30 00:53:46;;;;;;;6.20;5.28;;;;;;;20.41;71.85;98864.91;4996857;28;102782;-61
2022/08/30 00:56:16;;;;;;;5.95;5.22;;;;;;;20.44;71.20;98867.25;4994894;28;103310;-61
2022/08/30 00:58:48;;;;;;;4.40;4.10;;;;;;;20.42;71.56;98871.97;4995221;28;103176;-61
2022/08/30 01:01:17;;;;;;;4.68;4.28;;;;;;;20.49;71.35;98867.59;4995804;28;102639;-61
2022/08/30 01:03:47;;;;;;;4.33;4.03;;;;;;;20.51;71.15;98865.59;4992897;28;103783;-61
2022/08/30 01:06:16;;;;;;;5.73;5.23;;;;;;;20.53;71.12;98871.63;4995915;28;103329;-62
2022/08/30 01:08:45;;;;;;;4.83;4.33;;;;;;;20.52;71.04;98867.28;4992390;28;103214;-61
2022/08/30 01:11:17;;;;;;;6.00;5.25;;;;;;;20.48;71.35;98876.66;4992560;28;102741;-61
2022/08/30 01:13:46;;;;;;;6.05;4.90;;;;;;;20.44;71.21;98875.31;4989944;28;103791;-61
2022/08/30 01:16:15;;;;;;;5.68;5.18;;;;;;;20.36;71.54;98867.25;4989606;28;103259;-61
2022/08/30 01:18:44;;;;;;;5.13;4.63;;;;;;;20.28;72.14;98864.59;4989094;28;103092;-61
2022/08/30 01:21:20;;;;;;;5.18;4.68;;;;;;;20.34;71.73;98863.91;5007521;27;102927;-61
2022/08/30 01:23:52;;;;;;;6.60;6.00;;;;;;;20.12;72.45;98866.25;4988152;28;104079;-61
2022/08/30 01:26:21;;;;;;;4.60;4.20;;;;;;;20.19;72.20;98869.06;4989077;28;104013;-61
2022/08/30 01:28:53;;;;;;;5.45;4.95;;;;;;;20.07;72.97;98863.19;4993063;28;103164;-61
2022/08/30 01:31:21;;;;;;;5.15;4.65;;;;;;;20.15;72.76;98859.72;4989734;28;102657;-61
2022/08/30 01:33:50;;;;;;;9.30;6.13;;;;;;;20.02;73.05;98870.91;4991189;28;102885;-61
2022/08/30 01:36:20;;;;;;;7.53;5.60;;;;;;;19.88;73.37;98868.88;4987799;28;104144;-61
2022/08/30 01:38:54;;;;;;;5.20;4.80;;;;;;;19.85;73.91;98863.84;4993555;28;103195;-61
2022/08/30 01:41:25;;;;;;;5.80;5.20;;;;;;;19.93;73.06;98866.53;4992169;28;102766;-61
2022/08/30 01:43:59;;;;;;;6.25;5.50;;;;;;;19.82;74.02;98869.53;4989863;28;102733;-61
2022/08/30 01:46:34;;;;;;;5.60;5.10;;;;;;;19.88;73.25;98863.53;4994234;28;103256;-61
2022/08/30 01:49:05;;;;;;;6.32;5.72;;;;;;;19.80;73.42;98865.34;4995583;28;103620;-61
2022/08/30 01:51:33;;;;;;;4.93;4.53;;;;;;;19.86;73.31;98878.94;4996745;28;103075;-61
2022/08/30 01:54:06;;;;;;;5.43;4.45;;;;;;;19.89;73.11;98881.31;4994482;28;102681;-60
2022/08/30 01:56:34;;;;;;;7.20;6.30;;;;;;;19.48;75.40;98885.69;4990051;28;103224;-61
2022/08/30 01:59:03;;;;;;;5.43;4.93;;;;;;;19.58;74.61;98882.91;4994276;28;103830;-61
2022/08/30 02:01:34;;;;;;;5.67;5.13;;;;;;;19.75;73.68;98878.41;4991703;28;102957;-61
2022/08/30 02:04:06;;;;;;;6.15;5.00;;;;;;;19.78;73.74;98883.44;5002632;28;102700;-61
2022/08/30 02:06:34;;;;;;;4.83;4.47;;;;;;;19.82;73.20;98882.13;4991716;28;103491;-61
2022/08/30 02:09:06;;;;;;;5.03;4.63;;;;;;;19.86;72.80;98884.31;5002391;28;103325;-61
2022/08/30 02:11:34;;;;;;;5.38;4.88;;;;;;;19.81;73.00;98883.97;4992616;28;102687;-61
2022/08/30 02:14:02;;;;;;;5.00;4.60;;;;;;;19.79;73.44;98875.22;4994506;28;103601;-61
2022/08/30 02:16:30;;;;;;;5.27;4.60;;;;;;;19.69;74.19;98874.56;4995179;28;103126;-61
2022/08/30 02:18:58;;;;;;;4.67;4.27;;;;;;;19.79;73.28;98869.88;4987954;28;103129;-61
2022/08/30 02:21:27;;;;;;;5.88;5.28;;;;;;;19.79;72.77;98874.41;4994943;28;102599;-60
2022/08/30 02:23:55;;;;;;;5.15;4.75;;;;;;;19.71;73.83;98872.53;4993934;28;102696;-61
2022/08/30 02:26:25;;;;;;;5.22;4.72;;;;;;;19.71;73.67;98867.19;4995166;28;103483;-61
2022/08/30 02:28:53;;;;;;;5.40;4.90;;;;;;;19.70;73.64;98862.84;4993798;28;103172;-61
2022/08/30 02:31:24;;;;;;;6.78;5.53;;;;;;;19.68;72.90;98868.34;4992733;28;102611;-62
2022/08/30 02:33:54;;;;;;;5.28;4.85;;;;;;;19.64;73.66;98855.44;4994062;28;102742;-62
2022/08/30 02:36:23;;;;;;;6.35;5.65;;;;;;;19.54;74.20;98854.75;4992652;28;103260;-61
2022/08/30 02:38:51;;;;;;;5.07;4.57;;;;;;;19.56;74.01;98863.47;4991886;28;103298;-61
2022/08/30 02:41:19;;;;;;;5.30;4.80;;;;;;;19.55;73.43;98856.44;4991849;28;102670;-61
2022/08/30 02:43:49;;;;;;;4.85;4.32;;;;;;;19.54;73.66;98857.41;4993940;28;102658;-61
2022/08/30 02:46:18;;;;;;;6.22;5.50;;;;;;;19.40;73.69;98852.69;4991931;28;103282;-61
2022/08/30 02:48:46;;;;;;;4.72;4.32;;;;;;;19.40;74.27;98841.97;4995654;28;103178;-61
2022/08/30 02:51:14;;;;;;;4.75;4.15;;;;;;;19.49;73.67;98849.03;4994932;28;102718;-61
2022/08/30 02:53:44;;;;;;;5.20;4.80;;;;;;;19.44;74.10;98857.56;4992307;28;104283;-60
2022/08/30 02:56:14;;;;;;;4.30;3.90;;;;;;;19.49;73.45;98857.06;4993987;28;103256;-61
2022/08/30 02:58:43;;;;;;;4.75;4.35;;;;;;;19.55;73.35;98857.28;4992804;28;103604;-61
2022/08/30 03:01:15;;;;;;;4.75;4.35;;;;;;;19.53;73.47;98863.81;4995978;28;102663;-61
2022/08/30 03:03:44;;;;;;;5.03;4.63;;;;;;;19.47;73.86;98854.56;4990941;28;102581;-61
2022/08/30 03:06:13;;;;;;;4.53;4.13;;;;;;;19.46;74.29;98846.69;4992344;28;103971;-61
2022/08/30 03:08:41;;;;;;;6.90;6.15;;;;;;;19.18;75.25;98847.88;5007679;28;103092;-61
2022/08/30 03:11:09;;;;;;;7.63;6.95;;;;;;;18.49;78.64;98846.19;4995576;28;102655;-61
2022/08/30 03:13:36;;;;;;;7.15;6.43;;;;;;;18.42;79.51;98839.75;4994823;28;102696;-61
2022/08/30 03:16:04;;;;;;;8.17;7.37;;;;;;;17.71;82.63;98844.34;4991092;28;103299;-61
2022/08/30 03:18:34;;;;;;;8.68;7.20;;;;;;;17.69;83.73;98844.47;4994022;28;103452;-61
2022/08/30 03:21:02;;;;;;;7.60;6.80;;;;;;;17.83;84.05;98843.97;4991467;28;102876;-61
2022/08/30 03:23:32;;;;;;;8.02;7.07;;;;;;;18.02;81.73;98842.94;4994113;28;103163;-60
2022/08/30 03:26:00;;;;;;;10.13;7.30;;;;;;;18.09;81.99;98845.84;4993688;28;103468;-61
2022/08/30 03:28:28;;;;;;;7.50;6.80;;;;;;;18.23;80.47;98835.44;4992080;28;103409;-61
2022/08/30 03:30:58;;;;;;;6.38;5.78;;;;;;;18.47;79.47;98834.75;4994143;28;102620;-61
2022/08/30 03:33:26;;;;;;;5.00;4.60;;;;;;;18.64;78.54;98839.25;4994070;28;102744;-61
2022/08/30 03:35:56;;;;;;;6.82;6.22;;;;;;;18.62;78.22;98845.75;4990531;28;103277;-61
2022/08/30 03:38:24;;;;;;;8.02;7.20;;;;;;;18.40;78.86;98847.09;4990877;28;103318;-61
2022/08/30 03:40:52;;;;;;;6.28;5.75;;;;;;;18.52;79.09;98851.25;4992296;28;102788;-61
2022/08/30 03:43:19;;;;;;;9.32;7.35;;;;;;;18.08;80.24;98846.88;4994061;28;103737;-61
2022/08/30 03:45:47;;;;;;;8.83;7.57;;;;;;;17.42;85.33;98844.50;4990566;28;103509;-61
2022/08/30 03:48:18;;;;;;;8.70;7.80;;;;;;;17.35;84.52;98848.75;4991847;28;103190;-60
2022/08/30 03:50:46;;;;;;;9.55;7.68;;;;;;;17.28;85.48;98847.69;4995134;28;103768;-60
2022/08/30 03:53:15;;;;;;;7.73;7.03;;;;;;;17.66;83.67;98842.13;4994709;28;102880;-60
2022/08/30 03:55:44;;;;;;;7.88;7.18;;;;;;;17.84;82.75;98837.63;4992335;28;103139;-61
2022/08/30 03:58:13;;;;;;;5.18;4.78;;;;;;;18.16;80.86;98842.38;4993056;28;103955;-61
2022/08/30 04:00:46;;;;;;;6.43;5.57;;;;;;;18.35;79.38;98839.56;4991453;28;102856;-61
2022/08/30 04:03:14;;;;;;;7.68;6.82;;;;;;;18.10;79.94;98844.88;4994769;28;102756;-62
2022/08/30 04:05:42;;;;;;;9.37;7.30;;;;;;;17.54;83.94;98853.19;4990553;28;103501;-61
2022/08/30 04:08:10;;;;;;;8.10;7.30;;;;;;;17.63;83.26;98857.59;4993884;28;103334;-61
2022/08/30 04:10:39;;;;;;;6.85;6.20;;;;;;;17.81;83.08;98845.94;4992806;28;102717;-60
2022/08/30 04:13:07;;;;;;;7.20;6.50;;;;;;;18.02;81.91;98855.50;4992362;28;104058;-61
2022/08/30 04:15:35;;;;;;;7.18;6.55;;;;;;;18.03;81.35;98849.97;4994322;28;103275;-61
2022/08/30 04:18:03;;;;;;;8.18;6.85;;;;;;;18.18;80.16;98842.25;4991925;28;103096;-61
2022/08/30 04:20:34;;;;;;;5.50;5.00;;;;;;;18.28;79.79;98854.53;4986213;28;103821;-61
2022/08/30 04:23:02;;;;;;;6.90;6.20;;;;;;;18.34;79.43;98847.72;4992155;28;102961;-60
2022/08/30 04:25:30;;;;;;;4.95;4.55;;;;;;;18.44;78.49;98851.16;4997293;28;104039;-61
2022/08/30 04:27:59;;;;;;;6.20;5.60;;;;;;;18.50;77.88;98845.19;4994091;28;103227;-61
2022/08/30 04:30:27;;;;;;;6.68;5.88;;;;;;;18.43;78.84;98852.97;4991111;28;102725;-61
2022/08/30 04:32:55;;;;;;;5.35;4.75;;;;;;;18.44;78.51;98853.81;4992406;28;103014;-61
2022/08/30 04:35:26;;;;;;;6.18;5.50;;;;;;;18.48;78.21;98852.53;4989722;28;103268;-60
2022/08/30 04:37:54;;;;;;;7.65;6.20;;;;;;;18.36;77.91;98853.75;4990314;28;103879;-61
2022/08/30 04:40:22;;;;;;;8.77;7.03;;;;;;;18.27;78.76;98860.06;4991117;28;103180;-61
2022/08/30 04:42:52;;;;;;;6.22;5.10;;;;;;;18.32;79.20;98860.41;4991179;28;102709;-61
2022/08/30 04:45:22;;;;;;;7.17;6.43;;;;;;;17.99;81.50;98859.31;4988754;28;103318;-61
2022/08/30 04:47:53;;;;;;;6.00;5.50;;;;;;;18.28;79.33;98861.72;4995159;28;103482;-62
2022/08/30 04:50:26;;;;;;;4.97;4.57;;;;;;;18.46;78.23;98862.53;4995234;28;103861;-62
2022/08/30 04:52:54;;;;;;;6.82;6.22;;;;;;;18.53;77.53;98868.94;4993360;28;102830;-62
2022/08/30 04:55:23;;;;;;;7.07;5.90;;;;;;;18.55;77.66;98866.97;4993813;28;103413;-61
2022/08/30 04:57:51;;;;;;;7.20;6.30;;;;;;;18.49;77.56;98863.09;4993781;28;103181;-62
2022/08/30 05:00:21;;;;;;;6.20;5.60;;;;;;;18.43;78.60;98869.03;4992751;28;102581;-61
2022/08/30 05:02:51;;;;;;;5.03;4.57;;;;;;;18.49;77.96;98879.16;4994569;28;103683;-62
2022/08/30 05:08:06;;;;;;;6.60;6.00;;;;;;;18.55;78.18;98887.53;4995951;28;103814;-61
2022/08/30 05:10:34;;;;;;;6.22;5.50;;;;;;;18.64;78.24;98895.44;4993770;28;102643;-62
2022/08/30 05:13:02;;;;;;;8.43;7.60;;;;;;;18.30;81.00;98898.00;4993192;28;102852;-61
2022/08/30 05:15:34;;;;;;;9.40;8.38;;;;;;;18.42;80.71;98901.28;4990793;28;104272;-61
2022/08/30 05:18:02;;;;;;;9.53;8.40;;;;;;;18.16;82.97;98903.88;4992166;28;103306;-61
2022/08/30 05:20:30;;;;;;;7.27;6.57;;;;;;;18.54;81.80;98897.38;4993868;28;102788;-61
2022/08/30 05:22:58;;;;;;;11.07;7.07;;;;;;;18.53;81.51;98903.72;4991291;28;102754;-61
2022/08/30 05:25:30;;;;;;;7.55;6.85;;;;;;;18.78;80.83;98902.91;4993562;28;104391;-61
2022/08/30 05:27:58;;;;;;;5.28;4.80;;;;;;;19.04;79.90;98898.38;4995576;28;103171;-61
2022/08/30 05:30:28;;;;;;;6.65;5.95;;;;;;;19.13;79.50;98907.28;4988626;28;102845;-63
2022/08/30 05:32:57;;;;;;;6.30;5.50;;;;;;;19.33;77.93;98905.22;4994405;28;102681;-62
2022/08/30 05:35:25;;;;;;;6.75;6.07;;;;;;;19.35;77.90;98906.72;4992968;28;103285;-61
2022/08/30 05:37:54;;;;;;;7.67;5.77;;;;;;;19.47;77.03;98902.81;4993286;28;103316;-61
2022/08/30 05:40:22;;;;;;;5.47;4.97;;;;;;;19.58;76.63;98893.63;4993849;28;102712;-62
2022/08/30 05:42:50;;;;;;;4.70;4.30;;;;;;;19.71;75.50;98888.63;4995033;28;103833;-62
2022/08/30 05:45:18;;;;;;;6.68;6.03;;;;;;;19.54;76.48;98882.38;4993526;28;103544;-62
2022/08/30 05:47:47;;;;;;;9.75;8.07;;;;;;;18.85;78.77;98879.03;4994552;28;103148;-62
2022/08/30 05:50:16;;;;;;;8.27;7.03;;;;;;;18.97;79.26;98888.47;4992711;28;102919;-62
2022/08/30 05:52:44;;;;;;;7.13;6.43;;;;;;;19.18;77.48;98890.75;4993357;28;103091;-62
2022/08/30 05:55:13;;;;;;;9.10;7.40;;;;;;;19.25;77.62;98894.47;4992434;28;103520;-62
2022/08/30 05:57:41;;;;;;;10.60;7.97;;;;;;;19.25;79.32;98886.44;4992328;28;103253;-61
2022/08/30 06:00:13;;;;;;;8.57;7.55;;;;;;;19.51;77.88;98873.81;4994602;28;102918;-61
2022/08/30 06:02:42;;;;;;;8.80;7.30;;;;;;;19.46;78.08;98881.50;4994729;28;102881;-61
2022/08/30 06:05:11;;;;;;;9.43;7.30;;;;;;;19.71;78.28;98888.63;4992492;28;103248;-60
2022/08/30 06:07:43;;;;;;;7.68;6.40;;;;;;;19.98;77.69;98893.72;4991662;28;103214;-59
2022/08/30 06:10:12;;;;;;;8.07;6.75;;;;;;;20.18;76.80;98897.75;4993938;28;102832;-62
2022/08/30 06:12:44;;;;;;;7.18;6.47;;;;;;;20.37;76.04;98896.63;4992126;28;102662;-60
2022/08/30 06:15:12;;;;;;;7.82;7.13;;;;;;;20.58;75.30;98898.78;4993394;28;103709;-61
2022/08/30 06:17:40;;;;;;;8.83;7.93;;;;;;;20.72;74.83;98901.63;4993062;28;103155;-62
2022/08/30 06:20:09;;;;;;;11.57;9.32;;;;;;;20.64;75.42;98901.63;4990130;28;102738;-61
2022/08/30 06:22:38;;;;;;;9.13;8.23;;;;;;;20.89;74.81;98905.09;4991758;28;103945;-62
2022/08/30 06:25:12;;;;;;;9.68;8.68;;;;;;;21.07;73.68;98900.41;4991887;28;103330;-62
2022/08/30 06:27:41;;;;;;;10.70;9.23;;;;;;;21.12;73.42;98903.41;4994291;28;103228;-62
2022/08/30 06:30:10;;;;;;;12.45;10.88;;;;;;;20.73;75.22;98903.31;4995108;28;103183;-61
2022/08/30 06:32:38;;;;;;;8.38;7.57;;;;;;;20.96;75.55;98903.44;4993579;28;102793;-61
2022/08/30 06:35:07;;;;;;;11.02;10.00;;;;;;;20.51;77.07;98903.16;4993391;28;103772;-61
2022/08/30 06:37:35;;;;;;;10.70;9.60;;;;;;;21.12;75.07;98895.34;4993423;28;103651;-62
2022/08/30 06:40:04;;;;;;;7.27;6.67;;;;;;;21.50;73.76;98892.88;4993253;28;102868;-62
2022/08/30 06:42:34;;;;;;;9.20;8.10;;;;;;;21.78;72.21;98892.19;4993454;28;103835;-62
2022/08/30 06:45:02;;;;;;;10.20;8.37;;;;;;;21.78;71.46;98889.50;4993571;28;103834;-63
2022/08/30 06:47:38;;;;;;;12.73;11.00;;;;;;;21.14;73.08;98890.63;4991685;28;104169;-62
2022/08/30 06:50:08;;;;;;;13.90;11.80;;;;;;;20.86;72.74;98891.19;4993199;28;102899;-61
2022/08/30 06:52:41;;;;;;;12.20;10.40;;;;;;;21.41;71.74;98897.44;4992072;28;102810;-62
2022/08/30 06:55:10;;;;;;;13.70;9.77;;;;;;;22.12;69.93;98891.81;4988911;28;103485;-62
2022/08/30 06:57:39;;;;;;;10.37;9.27;;;;;;;22.13;69.93;98892.66;4994584;28;104478;-61
2022/08/30 07:00:10;;;;;;;12.17;10.90;;;;;;;21.38;71.77;98890.56;4989781;28;102875;-61
2022/08/30 07:02:39;;;;;;;10.38;9.32;;;;;;;21.99;70.35;98880.84;4992298;28;102993;-62
2022/08/30 07:05:11;;;;;;;13.57;10.45;;;;;;;21.85;70.79;98884.25;4989035;28;103572;-61
2022/08/30 07:07:45;;;;;;;13.10;10.97;;;;;;;21.65;71.78;98880.34;4992422;28;104081;-62
2022/08/30 07:10:16;;;;;;;9.97;9.07;;;;;;;22.26;69.76;98880.28;4989851;28;102998;-62
2022/08/30 07:12:45;;;;;;;9.65;8.65;;;;;;;22.43;68.97;98889.91;4996875;28;103904;-65
2022/08/30 07:15:14;;;;;;;7.25;6.65;;;;;;;22.62;68.21;98885.88;4988113;28;103286;-65
2022/08/30 07:20:30;;;;;;;10.05;8.45;;;;;;;22.79;66.06;98883.91;4992737;28;102675;-65
2022/08/30 07:23:07;;;;;;;15.93;10.90;;;;;;;22.62;66.11;98888.56;4992383;28;102832;-64
2022/08/30 07:25:35;;;;;;;11.80;9.20;;;;;;;22.64;66.24;98891.09;4990963;28;104087;-65
2022/08/30 07:28:06;;;;;;;8.13;7.32;;;;;;;23.08;65.49;98889.28;4991004;28;103213;-64
2022/08/30 07:30:35;;;;;;;9.90;8.88;;;;;;;23.19;65.35;98885.28;4990357;28;103029;-65
2022/08/30 07:33:03;;;;;;;11.15;9.35;;;;;;;22.63;66.55;98894.78;4992320;28;103165;-64
2022/08/30 07:35:32;;;;;;;10.55;9.52;;;;;;;21.92;67.97;98894.16;4991856;28;103154;-64
2022/08/30 07:38:00;;;;;;;13.70;9.75;;;;;;;22.29;66.05;98896.06;4969667;28;103642;-63
2022/08/30 07:40:28;;;;;;;8.77;7.87;;;;;;;23.04;65.44;98898.78;4988743;28;103112;-64
2022/08/30 07:43:01;;;;;;;9.80;8.38;;;;;;;23.32;65.25;98896.28;4989419;28;103056;-64
2022/08/30 07:45:31;;;;;;;8.48;7.32;;;;;;;23.30;64.31;98901.84;4978236;28;103238;-62
2022/08/30 07:48:06;;;;;;;8.07;7.28;;;;;;;23.64;63.08;98891.31;4976049;28;108157;-63
2022/08/30 07:50:34;;;;;;;7.95;7.15;;;;;;;23.87;63.06;98893.88;4981092;28;103196;-62
2022/08/30 07:53:02;;;;;;;7.82;7.03;;;;;;;24.09;61.49;98905.53;4981921;28;104610;-62
2022/08/30 07:55:34;;;;;;;11.88;8.98;;;;;;;22.36;65.67;98902.44;4983690;28;103248;-64
2022/08/30 07:58:02;;;;;;;9.60;8.65;;;;;;;22.58;66.55;98897.19;4983235;28;103228;-64
2022/08/30 08:00:32;;;;;;;8.47;7.63;;;;;;;22.91;66.27;98898.56;4985354;28;103120;-64
2022/08/30 08:03:06;;;;;;;7.97;6.97;;;;;;;23.06;65.95;98886.81;4985464;28;104009;-64
2022/08/30 08:05:37;;;;;;;11.90;8.45;;;;;;;22.66;66.96;98894.44;4983436;28;104117;-62
2022/08/30 08:08:05;;;;;;;9.60;8.10;;;;;;;22.79;68.24;98889.28;4983571;28;103277;-63
2022/08/30 08:10:35;;;;;;;6.68;6.00;;;;;;;24.63;63.60;98893.22;4960932;28;102955;-63
2022/08/30 08:13:03;;;;;;;6.22;5.63;;;;;;;25.32;59.61;98890.56;4988503;28;103029;-63
2022/08/30 08:15:33;;;;;;;7.55;6.03;;;;;;;24.95;58.96;98896.38;4987785;28;103970;-63
2022/08/30 08:18:02;;;;;;;9.25;6.40;;;;;;;24.59;59.78;98889.22;4988519;28;103255;-68
2022/08/30 08:20:30;;;;;;;9.85;6.60;;;;;;;24.27;61.23;98892.47;4988108;28;102683;-68
2022/08/30 08:22:58;;;;;;;7.32;5.65;;;;;;;25.83;58.43;98891.88;4990910;28;102896;-67
2022/08/30 08:25:27;;;;;;;7.93;5.85;;;;;;;25.17;56.70;98895.28;4992354;28;104831;-63
2022/08/30 08:28:00;;;;;;;6.47;5.50;;;;;;;25.49;57.35;98888.41;4989865;28;103416;-63
2022/08/30 08:30:36;;;;;;;7.97;5.23;;;;;;;26.56;52.80;98883.91;4991206;28;103218;-63
2022/08/30 08:33:05;;;;;;;5.57;4.85;;;;;;;27.59;52.64;98889.41;4990315;28;103327;-63
2022/08/30 08:35:34;;;;;;;6.20;5.47;;;;;;;26.02;53.03;98886.72;4994082;28;103903;-63
2022/08/30 08:38:03;;;;;;;5.95;5.15;;;;;;;27.35;51.48;98887.38;4996283;28;103191;-63
2022/08/30 08:40:42;;;;;;;6.10;4.80;;;;;;;27.63;50.84;98880.63;4995585;28;102898;-63
2022/08/30 08:43:16;;;;;;;8.68;5.32;;;;;;;26.51;52.95;98884.53;4992287;28;102690;-64
2022/08/30 08:45:56;;;;;;;6.40;5.20;;;;;;;26.15;53.66;98884.91;4989800;28;103274;-63
2022/08/30 08:48:32;;;;;;;5.93;5.20;;;;;;;26.36;53.89;98884.72;4992955;28;103763;-63
2022/08/30 08:54:19;;;;;;;5.70;5.07;;;;;;;28.96;48.63;98871.41;4991346;28;104064;-63
2022/08/30 08:56:47;;;;;;;7.10;5.10;;;;;;;27.41;50.47;98875.69;4990365;28;103796;-63
2022/08/30 08:59:16;;;;;;;5.70;4.80;;;;;;;29.25;49.46;98876.13;4997504;28;103171;-62
2022/08/30 09:01:49;;;;;;;7.65;5.35;;;;;;;27.22;50.88;98874.69;4991652;28;102942;-63
2022/08/30 09:04:22;;;;;;;7.53;5.13;;;;;;;29.10;48.66;98872.94;4994512;28;102869;-63
2022/08/30 09:06:57;;;;;;;5.83;4.80;;;;;;;29.20;48.06;98870.50;4992851;28;103285;-63
2022/08/30 09:09:29;;;;;;;6.13;5.13;;;;;;;29.76;47.71;98867.56;4989835;28;103204;-63
2022/08/30 09:11:57;;;;;;;4.53;4.13;;;;;;;30.65;45.82;98868.59;4991983;28;102889;-63
2022/08/30 09:14:29;;;;;;;5.63;4.95;;;;;;;30.41;45.79;98857.66;4994743;28;102757;-62
2022/08/30 09:17:02;;;;;;;9.35;5.90;;;;;;;27.96;49.84;98858.72;4993682;28;103005;-64
2022/08/30 09:19:40;;;;;;;8.80;5.53;;;;;;;28.57;48.70;98860.84;4994527;28;103350;-63
2022/08/30 09:22:21;;;;;;;5.43;4.70;;;;;;;30.16;47.10;98856.13;4994399;28;102732;-63
2022/08/30 09:24:51;;;;;;;5.33;4.83;;;;;;;31.16;45.03;98854.28;4990207;28;102784;-64
2022/08/30 09:27:24;;;;;;;7.00;5.40;;;;;;;29.37;46.97;98850.88;4992235;28;103311;-63
2022/08/30 09:30:07;;;;;;;7.20;5.60;;;;;;;29.22;47.21;98849.38;4991349;28;103176;-63
2022/08/30 09:32:53;;;;;;;5.78;5.28;;;;;;;29.43;45.47;98844.53;4993921;28;103017;-64
2022/08/30 09:35:24;;;;;;;5.82;4.90;;;;;;;30.59;45.56;98834.94;4993035;28;102998;-64
2022/08/30 09:37:57;;;;;;;5.95;4.72;;;;;;;31.30;43.42;98829.22;4995352;28;103307;-63
2022/08/30 09:40:28;;;;;;;6.10;5.05;;;;;;;30.58;44.04;98837.88;4993819;28;103507;-63
2022/08/30 09:43:04;;;;;;;5.05;4.65;;;;;;;31.85;42.77;98826.81;4993877;28;102742;-63
2022/08/30 09:45:38;;;;;;;4.68;4.25;;;;;;;32.15;40.91;98834.78;4993803;28;102698;-63
2022/08/30 09:48:31;;;;;;;4.93;4.53;;;;;;;32.39;40.78;98813.59;4991517;28;103299;-65
2022/08/30 09:51:17;;;;;;;5.10;4.70;;;;;;;32.63;41.29;98820.56;5002201;28;103382;-64
2022/08/30 09:53:52;;;;;;;5.20;4.70;;;;;;;33.00;39.93;98818.13;4993150;28;103109;-64
2022/08/30 09:56:46;;;;;;;4.80;4.35;;;;;;;32.75;39.14;98806.81;4993133;28;104073;-65
2022/08/30 09:59:32;;;;;;;6.85;5.00;;;;;;;29.29;42.12;98812.06;4988002;28;103717;-64
2022/08/30 10:02:04;;;;;;;5.20;4.32;;;;;;;31.23;41.02;98814.88;4991945;28;103277;-64
2022/08/30 10:04:43;;;;;;;4.90;4.40;;;;;;;30.90;39.97;98799.13;4992867;28;102693;-64
2022/08/30 10:07:18;;;;;;;5.80;4.50;;;;;;;29.36;41.53;98805.72;4994629;28;102848;-63
2022/08/30 10:09:53;;;;;;;4.10;3.78;;;;;;;32.07;39.91;98799.66;4992487;28;105056;-63
2022/08/30 10:12:34;;;;;;;4.85;4.45;;;;;;;32.69;38.30;98794.97;4995694;28;103188;-63
2022/08/30 10:15:08;;;;;;;5.10;4.70;;;;;;;32.72;39.04;98796.38;4996416;28;102649;-63
2022/08/30 10:17:47;;;;;;;4.97;4.50;;;;;;;33.14;37.08;98790.19;4995457;28;103972;-63
2022/08/30 10:20:23;;;;;;;4.63;4.23;;;;;;;32.05;39.31;98786.25;4990702;28;103226;-63
2022/08/30 10:23:00;;;;;;;5.20;4.70;;;;;;;30.56;41.20;98793.69;4999500;28;103198;-65
2022/08/30 10:25:33;;;;;;;5.00;4.60;;;;;;;32.07;39.56;98778.63;4996437;28;102969;-65
2022/08/30 10:28:06;;;;;;;4.97;4.60;;;;;;;32.13;39.42;98779.53;4982471;28;103120;-65
2022/08/30 10:30:40;;;;;;;5.85;5.25;;;;;;;28.91;44.10;98776.06;4986546;27;103272;-63
2022/08/30 10:33:12;;;;;;;4.90;4.50;;;;;;;30.97;42.54;98771.75;4997574;28;103286;-65
2022/08/30 10:35:46;;;;;;;4.80;4.40;;;;;;;31.60;39.48;98770.88;4987999;28;102877;-64
2022/08/30 10:38:21;;;;;;;5.20;4.70;;;;;;;31.01;41.05;98770.22;4989087;28;103867;-64
2022/08/30 10:41:13;;;;;;;5.30;4.80;;;;;;;30.01;42.63;98769.41;4989425;28;103644;-64
2022/08/30 10:43:49;;;;;;;5.20;4.78;;;;;;;30.35;42.53;98765.91;4982477;28;103185;-65
2022/08/30 10:46:27;;;;;;;4.90;4.40;;;;;;;30.32;42.25;98774.53;4987230;28;102732;-65
2022/08/30 10:48:59;;;;;;;5.57;4.87;;;;;;;31.74;39.85;98761.31;4990342;28;102880;-72
2022/08/30 10:51:34;;;;;;;5.30;4.80;;;;;;;31.89;39.72;98758.88;4987553;28;103100;-68
2022/08/30 10:54:10;;;;;;;6.15;4.43;;;;;;;32.28;38.13;98763.41;4978771;28;103077;-68
2022/08/30 10:56:43;;;;;;;5.30;4.80;;;;;;;30.54;40.81;98768.56;4987281;28;103058;-68
2022/08/30 10:59:11;;;;;;;5.10;4.70;;;;;;;31.95;38.65;98766.91;4988195;28;102699;-67
2022/08/30 11:02:05;;;;;;;5.53;4.68;;;;;;;32.07;38.33;98755.94;4987897;28;103877;-68
2022/08/30 11:05:07;;;;;;;4.75;4.35;;;;;;;32.78;36.75;98752.44;4988760;28;103191;-68
2022/08/30 11:07:46;;;;;;;5.07;4.63;;;;;;;32.09;38.32;98754.59;4995709;28;102748;-67
2022/08/30 11:10:28;;;;;;;4.70;4.38;;;;;;;32.55;38.77;98752.63;4993969;28;103780;-68
2022/08/30 11:13:05;;;;;;;4.63;4.22;;;;;;;32.90;37.03;98741.38;4993060;28;103787;-67
2022/08/30 11:15:36;;;;;;;4.70;4.20;;;;;;;32.05;37.48;98752.63;4995157;28;103328;-68
2022/08/30 11:18:11;;;;;;;4.53;4.13;;;;;;;32.86;36.93;98753.91;4995811;28;102823;-68
2022/08/30 11:20:43;;;;;;;4.25;3.90;;;;;;;33.48;35.23;98758.00;4994656;28;103887;-67
2022/08/30 11:23:26;;;;;;;4.82;4.40;;;;;;;33.09;36.39;98748.22;4994056;28;103370;-68
2022/08/30 11:26:02;;;;;;;5.03;4.45;;;;;;;31.90;36.44;98752.31;4991793;28;103802;-68
2022/08/30 11:29:04;;;;;;;3.92;3.63;;;;;;;33.48;35.22;98740.75;4995645;28;102885;-68
2022/08/30 11:31:39;;;;;;;4.30;4.00;;;;;;;33.59;35.26;98743.38;4899699;28;104076;-68
2022/08/30 11:34:08;;;;;;;5.18;4.68;;;;;;;31.41;38.00;98749.19;4979386;28;103404;-68
2022/08/30 11:37:04;;;;;;;5.25;4.40;;;;;;;31.91;37.69;98751.25;4993385;28;102983;-68
2022/08/30 11:39:55;;;;;;;5.07;4.57;;;;;;;31.97;37.94;98744.81;5001701;28;102911;-68
2022/08/30 11:42:30;;;;;;;4.97;4.57;;;;;;;32.10;36.55;98747.25;4993630;28;102735;-68
2022/08/30 11:45:40;;;;;;;5.97;4.80;;;;;;;29.89;40.15;98758.47;4994119;28;103066;-68
2022/08/30 11:48:44;;;;;;;4.53;4.13;;;;;;;31.75;38.77;98741.94;4991761;28;103199;-68
2022/08/30 11:51:45;;;;;;;5.53;5.03;;;;;;;30.40;39.82;98755.16;4990495;28;102901;-68
2022/08/30 11:54:42;;;;;;;5.28;4.75;;;;;;;31.16;38.10;98748.69;4994586;28;103985;-68